sensor_id;sensor_type;location;lat;lon;timestamp;P1;durP1;ratioP1;P2;durP2;ratioP2
13439;SDS011;6792;57.698;11.946;2023-04-06T00:01:47;1.33;;;1.23;;
13439;SDS011;6792;57.698;11.946;2023-04-06T00:04:17;2.43;;;1.13;;
13439;SDS011;6792;57.698;11.946;2023-04-06T00:06:46;2.70;;;1.10;;
13439;SDS011;6792;57.698;11.946;2023-04-06T00:09:16;1.83;;;1.30;;
13439;SDS011;6792;57.698;11.946;2023-04-06T00:11:45;1.40;;;1.17;;
13439;SDS011;6792;57.698;11.946;2023-04-06T00:14:15;2.53;;;1.17;;
13439;SDS011;6792;57.698;11.946;2023-04-06T00:16:44;3.90;;;1.30;;
13439;SDS011;6792;57.698;11.946;2023-04-06T00:19:14;1.97;;;1.20;;
13439;SDS011;6792;57.698;11.946;2023-04-06T00:21:45;1.97;;;1.30;;
13439;SDS011;6792;57.698;11.946;2023-04-06T00:24:15;0.83;;;0.80;;
13439;SDS011;6792;57.698;11.946;2023-04-06T00:26:43;2.00;;;1.27;;
13439;SDS011;6792;57.698;11.946;2023-04-06T00:29:14;3.57;;;1.30;;
13439;SDS011;6792;57.698;11.946;2023-04-06T00:31:46;1.57;;;1.20;;
13439;SDS011;6792;57.698;11.946;2023-04-06T00:34:15;1.30;;;1.20;;
13439;SDS011;6792;57.698;11.946;2023-04-06T00:36:46;1.83;;;1.23;;
13439;SDS011;6792;57.698;11.946;2023-04-06T00:39:16;1.13;;;1.00;;
13439;SDS011;6792;57.698;11.946;2023-04-06T00:41:49;1.30;;;1.20;;
13439;SDS011;6792;57.698;11.946;2023-04-06T00:44:19;3.07;;;1.30;;
13439;SDS011;6792;57.698;11.946;2023-04-06T00:46:49;1.73;;;1.40;;
13439;SDS011;6792;57.698;11.946;2023-04-06T00:49:19;1.97;;;1.30;;
13439;SDS011;6792;57.698;11.946;2023-04-06T00:51:48;1.77;;;1.10;;
13439;SDS011;6792;57.698;11.946;2023-04-06T00:54:17;2.67;;;1.13;;
13439;SDS011;6792;57.698;11.946;2023-04-06T00:56:47;1.37;;;0.90;;
13439;SDS011;6792;57.698;11.946;2023-04-06T00:59:16;1.20;;;1.10;;
13439;SDS011;6792;57.698;11.946;2023-04-06T01:01:46;1.33;;;1.23;;
13439;SDS011;6792;57.698;11.946;2023-04-06T01:04:19;2.20;;;1.10;;
13439;SDS011;6792;57.698;11.946;2023-04-06T01:06:50;1.53;;;0.90;;
13439;SDS011;6792;57.698;11.946;2023-04-06T01:09:19;1.40;;;1.10;;
13439;SDS011;6792;57.698;11.946;2023-04-06T01:11:50;1.40;;;1.10;;
13439;SDS011;6792;57.698;11.946;2023-04-06T01:14:19;2.20;;;1.10;;
13439;SDS011;6792;57.698;11.946;2023-04-06T01:16:49;1.63;;;1.20;;
13439;SDS011;6792;57.698;11.946;2023-04-06T01:19:19;1.30;;;1.20;;
13439;SDS011;6792;57.698;11.946;2023-04-06T01:21:50;3.07;;;1.30;;
13439;SDS011;6792;57.698;11.946;2023-04-06T01:24:20;1.20;;;1.10;;
13439;SDS011;6792;57.698;11.946;2023-04-06T01:26:49;1.20;;;1.10;;
13439;SDS011;6792;57.698;11.946;2023-04-06T01:29:18;3.17;;;1.40;;
13439;SDS011;6792;57.698;11.946;2023-04-06T01:31:48;2.70;;;1.33;;
13439;SDS011;6792;57.698;11.946;2023-04-06T01:34:17;1.97;;;0.90;;
13439;SDS011;6792;57.698;11.946;2023-04-06T01:36:46;2.00;;;1.20;;
13439;SDS011;6792;57.698;11.946;2023-04-06T01:39:16;1.30;;;1.17;;
13439;SDS011;6792;57.698;11.946;2023-04-06T01:41:46;1.50;;;1.20;;
13439;SDS011;6792;57.698;11.946;2023-04-06T01:44:16;1.77;;;1.23;;
13439;SDS011;6792;57.698;11.946;2023-04-06T01:46:46;1.10;;;1.00;;
13439;SDS011;6792;57.698;11.946;2023-04-06T01:49:19;1.30;;;1.20;;
13439;SDS011;6792;57.698;11.946;2023-04-06T01:51:48;1.83;;;1.33;;
13439;SDS011;6792;57.698;11.946;2023-04-06T01:54:19;1.40;;;1.13;;
13439;SDS011;6792;57.698;11.946;2023-04-06T01:56:50;1.53;;;1.37;;
13439;SDS011;6792;57.698;11.946;2023-04-06T01:59:20;2.00;;;1.03;;
13439;SDS011;6792;57.698;11.946;2023-04-06T02:01:49;3.60;;;1.40;;
13439;SDS011;6792;57.698;11.946;2023-04-06T02:04:18;3.37;;;1.30;;
13439;SDS011;6792;57.698;11.946;2023-04-06T02:06:48;1.47;;;1.03;;
13439;SDS011;6792;57.698;11.946;2023-04-06T02:09:17;1.30;;;1.17;;
13439;SDS011;6792;57.698;11.946;2023-04-06T02:11:46;3.60;;;1.60;;
13439;SDS011;6792;57.698;11.946;2023-04-06T02:14:19;3.50;;;1.30;;
13439;SDS011;6792;57.698;11.946;2023-04-06T02:16:48;2.10;;;1.00;;
13439;SDS011;6792;57.698;11.946;2023-04-06T02:19:17;1.33;;;1.10;;
13439;SDS011;6792;57.698;11.946;2023-04-06T02:21:47;2.33;;;1.10;;
13439;SDS011;6792;57.698;11.946;2023-04-06T02:24:16;1.67;;;1.20;;
13439;SDS011;6792;57.698;11.946;2023-04-06T02:26:48;1.70;;;1.23;;
13439;SDS011;6792;57.698;11.946;2023-04-06T02:29:17;2.93;;;1.30;;
13439;SDS011;6792;57.698;11.946;2023-04-06T02:31:47;1.43;;;1.20;;
13439;SDS011;6792;57.698;11.946;2023-04-06T02:34:17;1.40;;;1.30;;
13439;SDS011;6792;57.698;11.946;2023-04-06T02:39:34;1.33;;;1.23;;
13439;SDS011;6792;57.698;11.946;2023-04-06T02:42:03;1.83;;;1.40;;
13439;SDS011;6792;57.698;11.946;2023-04-06T02:44:33;2.10;;;1.30;;
13439;SDS011;6792;57.698;11.946;2023-04-06T02:47:02;1.10;;;1.00;;
13439;SDS011;6792;57.698;11.946;2023-04-06T02:49:31;1.80;;;1.30;;
13439;SDS011;6792;57.698;11.946;2023-04-06T02:52:01;2.23;;;1.13;;
13439;SDS011;6792;57.698;11.946;2023-04-06T02:54:31;1.70;;;1.20;;
13439;SDS011;6792;57.698;11.946;2023-04-06T02:57:00;1.23;;;1.10;;
13439;SDS011;6792;57.698;11.946;2023-04-06T02:59:30;1.33;;;1.00;;
13439;SDS011;6792;57.698;11.946;2023-04-06T03:02:00;1.50;;;1.40;;
13439;SDS011;6792;57.698;11.946;2023-04-06T03:04:30;1.73;;;1.37;;
13439;SDS011;6792;57.698;11.946;2023-04-06T03:07:00;1.30;;;1.10;;
13439;SDS011;6792;57.698;11.946;2023-04-06T03:09:30;1.60;;;1.03;;
13439;SDS011;6792;57.698;11.946;2023-04-06T03:12:00;1.50;;;1.20;;
13439;SDS011;6792;57.698;11.946;2023-04-06T03:14:29;1.53;;;0.93;;
13439;SDS011;6792;57.698;11.946;2023-04-06T03:16:58;1.27;;;1.17;;
13439;SDS011;6792;57.698;11.946;2023-04-06T03:19:28;0.90;;;0.90;;
13439;SDS011;6792;57.698;11.946;2023-04-06T03:21:57;1.13;;;1.03;;
13439;SDS011;6792;57.698;11.946;2023-04-06T03:24:27;1.43;;;1.17;;
13439;SDS011;6792;57.698;11.946;2023-04-06T03:26:56;1.30;;;1.20;;
13439;SDS011;6792;57.698;11.946;2023-04-06T03:29:26;2.23;;;1.33;;
13439;SDS011;6792;57.698;11.946;2023-04-06T03:31:56;1.20;;;1.10;;
13439;SDS011;6792;57.698;11.946;2023-04-06T03:34:25;1.97;;;1.30;;
13439;SDS011;6792;57.698;11.946;2023-04-06T03:36:55;1.20;;;1.10;;
13439;SDS011;6792;57.698;11.946;2023-04-06T03:39:24;1.10;;;1.00;;
13439;SDS011;6792;57.698;11.946;2023-04-06T03:41:53;1.73;;;1.20;;
13439;SDS011;6792;57.698;11.946;2023-04-06T03:44:23;2.43;;;1.43;;
13439;SDS011;6792;57.698;11.946;2023-04-06T03:46:52;1.83;;;1.30;;
13439;SDS011;6792;57.698;11.946;2023-04-06T03:49:21;1.40;;;1.30;;
13439;SDS011;6792;57.698;11.946;2023-04-06T03:51:52;1.50;;;1.20;;
13439;SDS011;6792;57.698;11.946;2023-04-06T03:54:21;1.73;;;1.07;;
13439;SDS011;6792;57.698;11.946;2023-04-06T03:56:50;1.40;;;1.30;;
13439;SDS011;6792;57.698;11.946;2023-04-06T03:59:20;2.43;;;1.30;;
13439;SDS011;6792;57.698;11.946;2023-04-06T04:01:49;1.40;;;1.30;;
13439;SDS011;6792;57.698;11.946;2023-04-06T04:04:19;1.73;;;1.30;;
13439;SDS011;6792;57.698;11.946;2023-04-06T04:06:48;1.67;;;1.40;;
13439;SDS011;6792;57.698;11.946;2023-04-06T04:09:17;1.27;;;1.17;;
13439;SDS011;6792;57.698;11.946;2023-04-06T04:11:47;1.67;;;1.30;;
13439;SDS011;6792;57.698;11.946;2023-04-06T04:14:16;1.70;;;1.40;;
13439;SDS011;6792;57.698;11.946;2023-04-06T04:16:46;1.50;;;1.30;;
13439;SDS011;6792;57.698;11.946;2023-04-06T04:19:16;1.23;;;1.13;;
13439;SDS011;6792;57.698;11.946;2023-04-06T04:21:47;1.67;;;1.30;;
13439;SDS011;6792;57.698;11.946;2023-04-06T04:24:16;1.40;;;1.30;;
13439;SDS011;6792;57.698;11.946;2023-04-06T04:26:46;3.43;;;1.50;;
13439;SDS011;6792;57.698;11.946;2023-04-06T04:29:15;1.30;;;1.20;;
13439;SDS011;6792;57.698;11.946;2023-04-06T04:31:46;1.53;;;1.20;;
13439;SDS011;6792;57.698;11.946;2023-04-06T04:34:16;1.67;;;1.30;;
13439;SDS011;6792;57.698;11.946;2023-04-06T04:36:47;1.57;;;1.33;;
13439;SDS011;6792;57.698;11.946;2023-04-06T04:39:16;1.60;;;1.37;;
13439;SDS011;6792;57.698;11.946;2023-04-06T04:41:45;2.17;;;1.30;;
13439;SDS011;6792;57.698;11.946;2023-04-06T04:44:15;1.77;;;1.60;;
13439;SDS011;6792;57.698;11.946;2023-04-06T04:46:44;1.60;;;1.33;;
13439;SDS011;6792;57.698;11.946;2023-04-06T04:49:16;4.70;;;1.63;;
13439;SDS011;6792;57.698;11.946;2023-04-06T04:51:46;1.33;;;1.23;;
13439;SDS011;6792;57.698;11.946;2023-04-06T04:54:16;1.43;;;1.30;;
13439;SDS011;6792;57.698;11.946;2023-04-06T04:56:46;1.50;;;1.40;;
13439;SDS011;6792;57.698;11.946;2023-04-06T04:59:16;1.77;;;1.67;;
13439;SDS011;6792;57.698;11.946;2023-04-06T05:01:46;2.90;;;1.73;;
13439;SDS011;6792;57.698;11.946;2023-04-06T05:04:15;7.40;;;1.50;;
13439;SDS011;6792;57.698;11.946;2023-04-06T05:06:46;1.60;;;1.50;;
13439;SDS011;6792;57.698;11.946;2023-04-06T05:09:16;2.17;;;1.57;;
13439;SDS011;6792;57.698;11.946;2023-04-06T05:11:45;2.40;;;1.60;;
13439;SDS011;6792;57.698;11.946;2023-04-06T05:14:14;3.03;;;1.53;;
13439;SDS011;6792;57.698;11.946;2023-04-06T05:16:44;2.47;;;1.73;;
13439;SDS011;6792;57.698;11.946;2023-04-06T05:19:14;3.00;;;1.70;;
13439;SDS011;6792;57.698;11.946;2023-04-06T05:21:43;1.57;;;1.33;;
13439;SDS011;6792;57.698;11.946;2023-04-06T05:24:12;2.63;;;1.83;;
13439;SDS011;6792;57.698;11.946;2023-04-06T05:26:42;5.60;;;1.43;;
13439;SDS011;6792;57.698;11.946;2023-04-06T05:29:12;1.50;;;1.27;;
13439;SDS011;6792;57.698;11.946;2023-04-06T05:31:43;1.87;;;1.40;;
13439;SDS011;6792;57.698;11.946;2023-04-06T05:34:15;1.53;;;1.43;;
13439;SDS011;6792;57.698;11.946;2023-04-06T05:36:44;1.70;;;1.40;;
13439;SDS011;6792;57.698;11.946;2023-04-06T05:39:16;1.57;;;1.47;;
13439;SDS011;6792;57.698;11.946;2023-04-06T05:41:46;1.70;;;1.33;;
13439;SDS011;6792;57.698;11.946;2023-04-06T05:44:16;3.50;;;1.47;;
13439;SDS011;6792;57.698;11.946;2023-04-06T05:46:48;2.90;;;2.70;;
13439;SDS011;6792;57.698;11.946;2023-04-06T05:49:18;1.70;;;1.50;;
13439;SDS011;6792;57.698;11.946;2023-04-06T05:51:47;3.67;;;1.60;;
13439;SDS011;6792;57.698;11.946;2023-04-06T05:54:16;2.67;;;1.50;;
13439;SDS011;6792;57.698;11.946;2023-04-06T05:56:46;2.00;;;1.30;;
13439;SDS011;6792;57.698;11.946;2023-04-06T05:59:15;2.37;;;1.67;;
13439;SDS011;6792;57.698;11.946;2023-04-06T06:01:44;1.87;;;1.30;;
13439;SDS011;6792;57.698;11.946;2023-04-06T06:04:17;2.13;;;1.47;;
13439;SDS011;6792;57.698;11.946;2023-04-06T06:06:46;1.87;;;1.33;;
13439;SDS011;6792;57.698;11.946;2023-04-06T06:09:16;1.93;;;1.47;;
13439;SDS011;6792;57.698;11.946;2023-04-06T06:11:47;1.87;;;1.40;;
13439;SDS011;6792;57.698;11.946;2023-04-06T06:14:27;1.70;;;1.30;;
13439;SDS011;6792;57.698;11.946;2023-04-06T06:16:56;1.37;;;1.20;;
13439;SDS011;6792;57.698;11.946;2023-04-06T06:19:26;1.73;;;1.50;;
13439;SDS011;6792;57.698;11.946;2023-04-06T06:21:55;1.63;;;1.30;;
13439;SDS011;6792;57.698;11.946;2023-04-06T06:24:27;1.77;;;1.43;;
13439;SDS011;6792;57.698;11.946;2023-04-06T06:26:57;1.33;;;1.23;;
13439;SDS011;6792;57.698;11.946;2023-04-06T06:29:26;3.50;;;1.50;;
13439;SDS011;6792;57.698;11.946;2023-04-06T06:31:56;3.50;;;1.90;;
13439;SDS011;6792;57.698;11.946;2023-04-06T06:34:26;4.03;;;1.30;;
13439;SDS011;6792;57.698;11.946;2023-04-06T06:37:05;1.73;;;1.30;;
13439;SDS011;6792;57.698;11.946;2023-04-06T06:39:39;3.00;;;1.20;;
13439;SDS011;6792;57.698;11.946;2023-04-06T06:42:09;2.30;;;1.70;;
13439;SDS011;6792;57.698;11.946;2023-04-06T06:44:44;2.20;;;1.47;;
13439;SDS011;6792;57.698;11.946;2023-04-06T06:47:14;2.57;;;1.40;;
13439;SDS011;6792;57.698;11.946;2023-04-06T06:49:46;1.73;;;1.33;;
13439;SDS011;6792;57.698;11.946;2023-04-06T06:52:19;1.23;;;1.13;;
13439;SDS011;6792;57.698;11.946;2023-04-06T06:54:52;2.40;;;1.57;;
13439;SDS011;6792;57.698;11.946;2023-04-06T06:57:29;2.03;;;1.40;;
13439;SDS011;6792;57.698;11.946;2023-04-06T06:59:59;3.03;;;1.33;;
13439;SDS011;6792;57.698;11.946;2023-04-06T07:02:34;2.30;;;1.60;;
13439;SDS011;6792;57.698;11.946;2023-04-06T07:05:04;2.67;;;1.27;;
13439;SDS011;6792;57.698;11.946;2023-04-06T07:07:34;1.40;;;1.30;;
13439;SDS011;6792;57.698;11.946;2023-04-06T07:10:04;1.83;;;1.47;;
13439;SDS011;6792;57.698;11.946;2023-04-06T07:12:34;3.97;;;1.57;;
13439;SDS011;6792;57.698;11.946;2023-04-06T07:15:04;4.63;;;1.40;;
13439;SDS011;6792;57.698;11.946;2023-04-06T07:17:35;2.53;;;1.53;;
13439;SDS011;6792;57.698;11.946;2023-04-06T07:20:05;1.37;;;1.27;;
13439;SDS011;6792;57.698;11.946;2023-04-06T07:22:37;2.03;;;1.40;;
13439;SDS011;6792;57.698;11.946;2023-04-06T07:25:08;2.13;;;1.40;;
13439;SDS011;6792;57.698;11.946;2023-04-06T07:27:38;1.30;;;1.20;;
13439;SDS011;6792;57.698;11.946;2023-04-06T07:30:09;1.57;;;1.37;;
13439;SDS011;6792;57.698;11.946;2023-04-06T07:32:41;2.10;;;1.50;;
13439;SDS011;6792;57.698;11.946;2023-04-06T07:35:11;1.67;;;1.30;;
13439;SDS011;6792;57.698;11.946;2023-04-06T07:37:41;1.67;;;1.57;;
13439;SDS011;6792;57.698;11.946;2023-04-06T07:40:11;1.17;;;1.07;;
13439;SDS011;6792;57.698;11.946;2023-04-06T07:42:40;2.57;;;1.40;;
13439;SDS011;6792;57.698;11.946;2023-04-06T07:45:10;2.83;;;1.23;;
13439;SDS011;6792;57.698;11.946;2023-04-06T07:47:40;2.37;;;1.50;;
13439;SDS011;6792;57.698;11.946;2023-04-06T07:50:10;1.50;;;1.40;;
13439;SDS011;6792;57.698;11.946;2023-04-06T07:52:39;1.47;;;1.30;;
13439;SDS011;6792;57.698;11.946;2023-04-06T07:55:09;3.20;;;1.50;;
13439;SDS011;6792;57.698;11.946;2023-04-06T07:57:38;1.37;;;1.27;;
13439;SDS011;6792;57.698;11.946;2023-04-06T08:00:09;1.60;;;1.30;;
13439;SDS011;6792;57.698;11.946;2023-04-06T08:02:40;1.50;;;1.40;;
13439;SDS011;6792;57.698;11.946;2023-04-06T08:05:09;1.50;;;1.37;;
13439;SDS011;6792;57.698;11.946;2023-04-06T08:07:39;2.33;;;1.60;;
13439;SDS011;6792;57.698;11.946;2023-04-06T08:10:09;2.33;;;1.53;;
13439;SDS011;6792;57.698;11.946;2023-04-06T08:12:39;2.17;;;1.60;;
13439;SDS011;6792;57.698;11.946;2023-04-06T08:15:09;1.73;;;1.47;;
13439;SDS011;6792;57.698;11.946;2023-04-06T08:17:39;2.50;;;1.20;;
13439;SDS011;6792;57.698;11.946;2023-04-06T08:20:09;2.37;;;1.20;;
13439;SDS011;6792;57.698;11.946;2023-04-06T08:22:38;2.27;;;1.10;;
13439;SDS011;6792;57.698;11.946;2023-04-06T08:25:08;1.93;;;1.30;;
13439;SDS011;6792;57.698;11.946;2023-04-06T08:27:37;2.23;;;1.30;;
13439;SDS011;6792;57.698;11.946;2023-04-06T08:30:07;3.10;;;1.40;;
13439;SDS011;6792;57.698;11.946;2023-04-06T08:32:37;1.50;;;1.20;;
13439;SDS011;6792;57.698;11.946;2023-04-06T08:35:08;2.53;;;1.87;;
13439;SDS011;6792;57.698;11.946;2023-04-06T08:37:37;1.40;;;1.13;;
13439;SDS011;6792;57.698;11.946;2023-04-06T08:40:08;2.87;;;1.40;;
13439;SDS011;6792;57.698;11.946;2023-04-06T08:42:39;1.97;;;1.47;;
13439;SDS011;6792;57.698;11.946;2023-04-06T08:45:10;1.20;;;1.10;;
13439;SDS011;6792;57.698;11.946;2023-04-06T08:47:42;1.47;;;1.30;;
13439;SDS011;6792;57.698;11.946;2023-04-06T08:50:11;1.33;;;1.20;;
13439;SDS011;6792;57.698;11.946;2023-04-06T08:52:43;1.63;;;1.53;;
13439;SDS011;6792;57.698;11.946;2023-04-06T08:55:14;1.53;;;1.43;;
13439;SDS011;6792;57.698;11.946;2023-04-06T08:57:44;2.63;;;1.27;;
13439;SDS011;6792;57.698;11.946;2023-04-06T09:00:15;1.47;;;1.27;;
13439;SDS011;6792;57.698;11.946;2023-04-06T09:02:46;2.00;;;1.57;;
13439;SDS011;6792;57.698;11.946;2023-04-06T09:05:17;2.27;;;1.57;;
13439;SDS011;6792;57.698;11.946;2023-04-06T09:07:47;2.20;;;1.50;;
13439;SDS011;6792;57.698;11.946;2023-04-06T09:10:17;2.27;;;1.37;;
13439;SDS011;6792;57.698;11.946;2023-04-06T09:12:49;2.90;;;1.70;;
13439;SDS011;6792;57.698;11.946;2023-04-06T09:15:19;1.87;;;1.60;;
13439;SDS011;6792;57.698;11.946;2023-04-06T09:17:49;5.00;;;1.77;;
13439;SDS011;6792;57.698;11.946;2023-04-06T09:20:22;2.67;;;1.70;;
13439;SDS011;6792;57.698;11.946;2023-04-06T09:22:54;2.60;;;1.80;;
13439;SDS011;6792;57.698;11.946;2023-04-06T09:25:24;3.07;;;1.50;;
13439;SDS011;6792;57.698;11.946;2023-04-06T09:28:00;4.10;;;1.70;;
13439;SDS011;6792;57.698;11.946;2023-04-06T09:30:32;6.73;;;2.10;;
13439;SDS011;6792;57.698;11.946;2023-04-06T09:33:03;2.00;;;1.70;;
13439;SDS011;6792;57.698;11.946;2023-04-06T09:38:21;2.13;;;1.90;;
13439;SDS011;6792;57.698;11.946;2023-04-06T09:40:50;5.17;;;2.00;;
13439;SDS011;6792;57.698;11.946;2023-04-06T09:43:26;2.80;;;2.10;;
13439;SDS011;6792;57.698;11.946;2023-04-06T09:45:56;2.53;;;2.00;;
13439;SDS011;6792;57.698;11.946;2023-04-06T09:48:36;2.37;;;2.10;;
13439;SDS011;6792;57.698;11.946;2023-04-06T09:51:06;3.63;;;2.20;;
13439;SDS011;6792;57.698;11.946;2023-04-06T09:53:38;3.83;;;2.50;;
13439;SDS011;6792;57.698;11.946;2023-04-06T09:56:10;7.77;;;2.50;;
13439;SDS011;6792;57.698;11.946;2023-04-06T09:58:42;3.27;;;2.23;;
13439;SDS011;6792;57.698;11.946;2023-04-06T10:01:15;5.70;;;2.30;;
13439;SDS011;6792;57.698;11.946;2023-04-06T10:03:48;3.83;;;2.53;;
13439;SDS011;6792;57.698;11.946;2023-04-06T10:06:21;3.90;;;2.90;;
13439;SDS011;6792;57.698;11.946;2023-04-06T10:08:52;6.53;;;2.90;;
13439;SDS011;6792;57.698;11.946;2023-04-06T10:11:24;4.33;;;2.53;;
13439;SDS011;6792;57.698;11.946;2023-04-06T10:13:53;5.07;;;3.00;;
13439;SDS011;6792;57.698;11.946;2023-04-06T10:16:24;4.90;;;3.10;;
13439;SDS011;6792;57.698;11.946;2023-04-06T10:18:57;5.33;;;2.80;;
13439;SDS011;6792;57.698;11.946;2023-04-06T10:21:28;4.70;;;2.70;;
13439;SDS011;6792;57.698;11.946;2023-04-06T10:24:00;4.03;;;2.70;;
13439;SDS011;6792;57.698;11.946;2023-04-06T10:26:36;5.33;;;3.00;;
13439;SDS011;6792;57.698;11.946;2023-04-06T10:29:05;3.40;;;2.70;;
13439;SDS011;6792;57.698;11.946;2023-04-06T10:31:39;5.20;;;3.30;;
13439;SDS011;6792;57.698;11.946;2023-04-06T10:34:09;5.87;;;3.73;;
13439;SDS011;6792;57.698;11.946;2023-04-06T10:36:39;5.70;;;3.27;;
13439;SDS011;6792;57.698;11.946;2023-04-06T10:39:08;4.63;;;3.53;;
13439;SDS011;6792;57.698;11.946;2023-04-06T10:41:41;8.67;;;4.00;;
13439;SDS011;6792;57.698;11.946;2023-04-06T10:44:18;6.77;;;4.03;;
13439;SDS011;6792;57.698;11.946;2023-04-06T10:46:53;6.20;;;4.03;;
13439;SDS011;6792;57.698;11.946;2023-04-06T10:49:27;7.57;;;4.60;;
13439;SDS011;6792;57.698;11.946;2023-04-06T10:51:56;4.73;;;4.20;;
13439;SDS011;6792;57.698;11.946;2023-04-06T10:54:26;7.97;;;5.27;;
13439;SDS011;6792;57.698;11.946;2023-04-06T10:56:58;9.70;;;5.73;;
13439;SDS011;6792;57.698;11.946;2023-04-06T10:59:28;8.87;;;5.23;;
13439;SDS011;6792;57.698;11.946;2023-04-06T11:01:57;7.53;;;5.43;;
13439;SDS011;6792;57.698;11.946;2023-04-06T11:04:27;13.10;;;5.13;;
13439;SDS011;6792;57.698;11.946;2023-04-06T11:06:56;7.93;;;5.33;;
13439;SDS011;6792;57.698;11.946;2023-04-06T11:12:04;8.43;;;5.80;;
13439;SDS011;6792;57.698;11.946;2023-04-06T11:14:34;9.10;;;5.33;;
13439;SDS011;6792;57.698;11.946;2023-04-06T11:17:03;9.73;;;5.73;;
13439;SDS011;6792;57.698;11.946;2023-04-06T11:19:32;7.23;;;4.60;;
13439;SDS011;6792;57.698;11.946;2023-04-06T11:22:06;6.73;;;4.70;;
13439;SDS011;6792;57.698;11.946;2023-04-06T11:24:36;7.47;;;4.30;;
13439;SDS011;6792;57.698;11.946;2023-04-06T11:27:08;4.80;;;3.33;;
13439;SDS011;6792;57.698;11.946;2023-04-06T11:29:37;9.57;;;4.60;;
13439;SDS011;6792;57.698;11.946;2023-04-06T11:32:07;5.97;;;3.50;;
13439;SDS011;6792;57.698;11.946;2023-04-06T11:34:37;8.73;;;3.43;;
13439;SDS011;6792;57.698;11.946;2023-04-06T11:37:07;5.40;;;2.93;;
13439;SDS011;6792;57.698;11.946;2023-04-06T11:39:39;4.43;;;3.00;;
13439;SDS011;6792;57.698;11.946;2023-04-06T11:42:10;7.00;;;3.00;;
13439;SDS011;6792;57.698;11.946;2023-04-06T11:44:40;4.43;;;3.00;;
13439;SDS011;6792;57.698;11.946;2023-04-06T11:47:13;4.43;;;3.17;;
13439;SDS011;6792;57.698;11.946;2023-04-06T11:49:43;7.70;;;3.77;;
13439;SDS011;6792;57.698;11.946;2023-04-06T11:52:16;6.37;;;2.57;;
13439;SDS011;6792;57.698;11.946;2023-04-06T11:54:48;4.10;;;2.70;;
13439;SDS011;6792;57.698;11.946;2023-04-06T11:57:19;4.23;;;2.80;;
13439;SDS011;6792;57.698;11.946;2023-04-06T11:59:50;6.63;;;3.57;;
13439;SDS011;6792;57.698;11.946;2023-04-06T12:02:28;3.97;;;2.53;;
13439;SDS011;6792;57.698;11.946;2023-04-06T12:05:12;3.67;;;2.30;;
13439;SDS011;6792;57.698;11.946;2023-04-06T12:07:43;3.27;;;2.13;;
13439;SDS011;6792;57.698;11.946;2023-04-06T12:10:14;3.17;;;2.13;;
13439;SDS011;6792;57.698;11.946;2023-04-06T12:13:01;3.37;;;2.40;;
13439;SDS011;6792;57.698;11.946;2023-04-06T12:15:36;5.33;;;2.60;;
13439;SDS011;6792;57.698;11.946;2023-04-06T12:18:05;3.53;;;2.27;;
13439;SDS011;6792;57.698;11.946;2023-04-06T12:20:35;3.30;;;1.97;;
13439;SDS011;6792;57.698;11.946;2023-04-06T12:23:08;3.60;;;2.53;;
13439;SDS011;6792;57.698;11.946;2023-04-06T12:25:39;2.10;;;1.83;;
13439;SDS011;6792;57.698;11.946;2023-04-06T12:28:10;3.40;;;2.17;;
13439;SDS011;6792;57.698;11.946;2023-04-06T12:30:39;6.77;;;2.37;;
13439;SDS011;6792;57.698;11.946;2023-04-06T12:33:08;2.53;;;2.00;;
13439;SDS011;6792;57.698;11.946;2023-04-06T12:35:38;4.53;;;2.00;;
13439;SDS011;6792;57.698;11.946;2023-04-06T12:38:07;6.10;;;2.20;;
13439;SDS011;6792;57.698;11.946;2023-04-06T12:40:37;1.93;;;1.70;;
13439;SDS011;6792;57.698;11.946;2023-04-06T12:43:07;5.23;;;2.30;;
13439;SDS011;6792;57.698;11.946;2023-04-06T12:45:37;4.60;;;1.90;;
13439;SDS011;6792;57.698;11.946;2023-04-06T12:48:07;4.17;;;2.00;;
13439;SDS011;6792;57.698;11.946;2023-04-06T12:50:36;3.60;;;2.00;;
13439;SDS011;6792;57.698;11.946;2023-04-06T12:53:05;3.13;;;1.73;;
13439;SDS011;6792;57.698;11.946;2023-04-06T12:55:35;3.70;;;1.90;;
13439;SDS011;6792;57.698;11.946;2023-04-06T12:58:04;2.37;;;1.57;;
13439;SDS011;6792;57.698;11.946;2023-04-06T13:00:33;2.53;;;1.50;;
13439;SDS011;6792;57.698;11.946;2023-04-06T13:03:03;2.40;;;1.40;;
13439;SDS011;6792;57.698;11.946;2023-04-06T13:05:32;2.70;;;1.50;;
13439;SDS011;6792;57.698;11.946;2023-04-06T13:08:01;2.07;;;1.30;;
13439;SDS011;6792;57.698;11.946;2023-04-06T13:10:31;2.60;;;1.20;;
13439;SDS011;6792;57.698;11.946;2023-04-06T13:13:00;3.33;;;1.07;;
13439;SDS011;6792;57.698;11.946;2023-04-06T13:15:31;0.98;;;0.88;;
13439;SDS011;6792;57.698;11.946;2023-04-06T13:18:02;1.00;;;0.90;;
13439;SDS011;6792;57.698;11.946;2023-04-06T13:20:32;0.83;;;0.73;;
13439;SDS011;6792;57.698;11.946;2023-04-06T13:23:01;4.05;;;1.07;;
13439;SDS011;6792;57.698;11.946;2023-04-06T13:25:31;3.83;;;1.47;;
13439;SDS011;6792;57.698;11.946;2023-04-06T13:28:01;1.27;;;1.17;;
13439;SDS011;6792;57.698;11.946;2023-04-06T13:30:30;2.30;;;1.30;;
13439;SDS011;6792;57.698;11.946;2023-04-06T13:32:59;1.90;;;1.40;;
13439;SDS011;6792;57.698;11.946;2023-04-06T13:35:29;2.83;;;1.35;;
13439;SDS011;6792;57.698;11.946;2023-04-06T13:37:58;4.60;;;1.30;;
13439;SDS011;6792;57.698;11.946;2023-04-06T13:40:28;2.92;;;1.65;;
13439;SDS011;6792;57.698;11.946;2023-04-06T13:42:57;2.80;;;1.10;;
13439;SDS011;6792;57.698;11.946;2023-04-06T13:45:27;4.35;;;1.40;;
13439;SDS011;6792;57.698;11.946;2023-04-06T13:47:56;1.90;;;1.00;;
13439;SDS011;6792;57.698;11.946;2023-04-06T13:50:26;3.37;;;1.20;;
13439;SDS011;6792;57.698;11.946;2023-04-06T13:52:55;2.15;;;1.20;;
13439;SDS011;6792;57.698;11.946;2023-04-06T13:55:25;3.15;;;1.47;;
13439;SDS011;6792;57.698;11.946;2023-04-06T13:57:54;3.22;;;1.10;;
13439;SDS011;6792;57.698;11.946;2023-04-06T14:00:24;2.67;;;1.35;;
13439;SDS011;6792;57.698;11.946;2023-04-06T14:02:54;4.15;;;1.35;;
13439;SDS011;6792;57.698;11.946;2023-04-06T14:05:23;2.52;;;1.40;;
13439;SDS011;6792;57.698;11.946;2023-04-06T14:07:54;3.52;;;1.25;;
13439;SDS011;6792;57.698;11.946;2023-04-06T14:10:23;1.80;;;1.10;;
13439;SDS011;6792;57.698;11.946;2023-04-06T14:12:54;2.02;;;1.17;;
13439;SDS011;6792;57.698;11.946;2023-04-06T14:15:24;2.08;;;1.22;;
13439;SDS011;6792;57.698;11.946;2023-04-06T14:17:55;3.58;;;1.27;;
13439;SDS011;6792;57.698;11.946;2023-04-06T14:20:24;1.65;;;1.30;;
13439;SDS011;6792;57.698;11.946;2023-04-06T14:22:53;2.55;;;1.10;;
13439;SDS011;6792;57.698;11.946;2023-04-06T14:25:23;1.57;;;1.22;;
13439;SDS011;6792;57.698;11.946;2023-04-06T14:27:52;1.67;;;1.35;;
13439;SDS011;6792;57.698;11.946;2023-04-06T14:30:21;3.75;;;1.20;;
13439;SDS011;6792;57.698;11.946;2023-04-06T14:32:51;1.52;;;1.10;;
13439;SDS011;6792;57.698;11.946;2023-04-06T14:35:20;2.60;;;1.25;;
13439;SDS011;6792;57.698;11.946;2023-04-06T14:37:49;3.27;;;1.42;;
13439;SDS011;6792;57.698;11.946;2023-04-06T14:40:18;3.37;;;1.20;;
13439;SDS011;6792;57.698;11.946;2023-04-06T14:42:49;2.35;;;1.00;;
13439;SDS011;6792;57.698;11.946;2023-04-06T14:45:18;2.15;;;1.55;;
13439;SDS011;6792;57.698;11.946;2023-04-06T14:47:49;5.67;;;1.42;;
13439;SDS011;6792;57.698;11.946;2023-04-06T14:50:18;6.30;;;1.43;;
13439;SDS011;6792;57.698;11.946;2023-04-06T14:52:47;3.87;;;1.55;;
13439;SDS011;6792;57.698;11.946;2023-04-06T14:55:17;1.92;;;1.50;;
13439;SDS011;6792;57.698;11.946;2023-04-06T14:57:46;7.10;;;1.67;;
13439;SDS011;6792;57.698;11.946;2023-04-06T15:00:19;3.15;;;1.50;;
13439;SDS011;6792;57.698;11.946;2023-04-06T15:02:48;1.82;;;1.20;;
13439;SDS011;6792;57.698;11.946;2023-04-06T15:05:18;4.40;;;1.45;;
13439;SDS011;6792;57.698;11.946;2023-04-06T15:07:47;5.73;;;1.47;;
13439;SDS011;6792;57.698;11.946;2023-04-06T15:10:18;7.87;;;1.82;;
13439;SDS011;6792;57.698;11.946;2023-04-06T15:12:47;24.40;;;3.77;;
13439;SDS011;6792;57.698;11.946;2023-04-06T15:15:17;3.33;;;1.75;;